Time;durP1;ratioP1;P1;durP2;ratioP2;P2;SDS_P1;SDS_P2;PMS_P1;PMS_P2;Temp;Humidity;BMP_temperature;BMP_pressure;BME280_temperature;BME280_humidity;BME280_pressure;Samples;Min_cycle;Max_cycle;Signal;HPM_P1;HPM_P2
2021/07/01 00:01:11;;;;;;;42.00;11.77;;;;;;;;;;4991023;28;20034;-59
2021/07/01 00:03:40;;;;;;;48.10;12.23;;;;;;;;;;4990337;28;20093;-58
2021/07/01 00:06:12;;;;;;;36.67;11.15;;;;;;;;;;4988404;28;20022;-59
2021/07/01 00:08:39;;;;;;;49.22;12.05;;;;;;;;;;4989219;28;20566;-58
2021/07/01 00:11:08;;;;;;;39.15;11.32;;;;;;;;;;4976854;28;20576;-59
2021/07/01 00:13:40;;;;;;;41.42;11.70;;;;;;;;;;4982834;28;20038;-60
2021/07/01 00:16:12;;;;;;;38.08;11.82;;;;;;;;;;4989627;28;20117;-58
2021/07/01 00:18:42;;;;;;;51.13;11.82;;;;;;;;;;4989347;28;20049;-58
2021/07/01 00:21:10;;;;;;;43.38;11.63;;;;;;;;;;4956451;28;20042;-57
2021/07/01 00:23:43;;;;;;;43.95;11.05;;;;;;;;;;4987968;28;20046;-59
2021/07/01 00:26:10;;;;;;;42.13;11.50;;;;;;;;;;4960614;28;20065;-58
2021/07/01 00:28:36;;;;;;;42.28;10.45;;;;;;;;;;4990482;28;20157;-58
2021/07/01 00:31:07;;;;;;;56.63;11.43;;;;;;;;;;4966274;28;20049;-57
2021/07/01 00:33:35;;;;;;;58.15;13.70;;;;;;;;;;4989444;28;20069;-59
2021/07/01 00:36:01;;;;;;;47.13;13.48;;;;;;;;;;4990853;28;20106;-58
2021/07/01 00:38:31;;;;;;;49.17;12.63;;;;;;;;;;4989360;28;21089;-58
2021/07/01 00:40:57;;;;;;;59.28;12.98;;;;;;;;;;4972760;28;22170;-58
2021/07/01 00:43:25;;;;;;;49.05;12.85;;;;;;;;;;4988601;28;20041;-58
2021/07/01 00:45:52;;;;;;;47.97;12.27;;;;;;;;;;4985976;28;20700;-58
2021/07/01 00:48:21;;;;;;;29.48;10.70;;;;;;;;;;4988798;28;20524;-58
2021/07/01 00:50:48;;;;;;;33.70;11.38;;;;;;;;;;4988031;28;20110;-58
2021/07/01 00:53:16;;;;;;;31.77;10.75;;;;;;;;;;4991271;28;20025;-58
2021/07/01 00:55:42;;;;;;;32.28;10.05;;;;;;;;;;4966455;28;20793;-58
2021/07/01 00:58:08;;;;;;;35.95;10.85;;;;;;;;;;4990829;28;20035;-58
2021/07/01 01:01:01;;;;;;;28.00;11.60;;;;;;;;;;4970348;28;20116;-58
2021/07/01 01:03:27;;;;;;;26.98;11.52;;;;;;;;;;4986955;28;22139;-58
2021/07/01 01:05:53;;;;;;;32.08;10.88;;;;;;;;;;4983406;28;20022;-59
2021/07/01 01:08:18;;;;;;;29.30;10.65;;;;;;;;;;4988889;28;20069;-57
2021/07/01 01:10:48;;;;;;;31.60;11.00;;;;;;;;;;4989326;28;20037;-59
2021/07/01 01:13:23;;;;;;;32.80;11.45;;;;;;;;;;4989386;28;20439;-59
2021/07/01 01:15:49;;;;;;;35.60;11.55;;;;;;;;;;4987096;28;20122;-58
2021/07/01 01:18:16;;;;;;;30.95;11.38;;;;;;;;;;4987144;28;20042;-58
2021/07/01 01:20:42;;;;;;;34.00;11.38;;;;;;;;;;4975725;28;20046;-60
2021/07/01 01:23:08;;;;;;;42.08;11.55;;;;;;;;;;4963959;28;20026;-58
2021/07/01 01:25:36;;;;;;;35.60;10.63;;;;;;;;;;4981465;28;20030;-59
2021/07/01 01:28:06;;;;;;;30.33;10.55;;;;;;;;;;4986162;28;20041;-60
2021/07/01 01:30:36;;;;;;;56.22;11.68;;;;;;;;;;4983698;28;20485;-58
2021/07/01 01:33:03;;;;;;;41.15;11.27;;;;;;;;;;4970793;28;20038;-58
2021/07/01 01:35:28;;;;;;;33.88;11.40;;;;;;;;;;4969539;28;20042;-58
2021/07/01 01:37:54;;;;;;;32.97;10.63;;;;;;;;;;4973512;28;20482;-59
2021/07/01 01:40:24;;;;;;;41.53;10.80;;;;;;;;;;4971793;28;20034;-58
2021/07/01 01:42:49;;;;;;;49.45;12.05;;;;;;;;;;4979387;28;20157;-59
2021/07/01 01:45:17;;;;;;;40.45;11.13;;;;;;;;;;4979765;28;20573;-58
2021/07/01 01:47:49;;;;;;;39.85;11.77;;;;;;;;;;4967122;28;20033;-58
2021/07/01 01:50:19;;;;;;;;;;;;;;;;;;4971682;28;20035;-56
2021/07/01 01:52:45;;;;;;;52.80;12.75;;;;;;;;;;4971042;28;19944;-59
2021/07/01 01:55:13;;;;;;;38.28;12.93;;;;;;;;;;4965864;28;20038;-58
2021/07/01 01:57:45;;;;;;;45.20;13.68;;;;;;;;;;4972119;28;20034;-57
2021/07/01 02:00:15;;;;;;;41.72;13.20;;;;;;;;;;4963458;28;20045;-57
2021/07/01 02:02:41;;;;;;;45.63;13.75;;;;;;;;;;4979007;28;20196;-58
2021/07/01 02:05:10;;;;;;;59.67;15.23;;;;;;;;;;4971441;28;20173;-58
2021/07/01 02:07:39;;;;;;;59.83;15.38;;;;;;;;;;4968939;28;20034;-58
2021/07/01 02:10:08;;;;;;;62.22;15.15;;;;;;;;;;4973139;28;20656;-58
2021/07/01 02:12:37;;;;;;;52.47;14.48;;;;;;;;;;4972480;28;20092;-57
2021/07/01 02:15:09;;;;;;;56.30;15.18;;;;;;;;;;4972403;28;20057;-58
2021/07/01 02:17:37;;;;;;;47.25;14.48;;;;;;;;;;4970398;28;20109;-58
2021/07/01 02:20:05;;;;;;;55.45;14.90;;;;;;;;;;4975131;28;20131;-58
2021/07/01 02:22:34;;;;;;;42.85;13.85;;;;;;;;;;4943052;28;20041;-58
2021/07/01 02:25:01;;;;;;;66.80;15.65;;;;;;;;;;4958387;28;21017;-57
2021/07/01 02:27:29;;;;;;;53.15;15.68;;;;;;;;;;4974121;28;20112;-58
2021/07/01 02:29:54;;;;;;;54.35;14.65;;;;;;;;;;4982796;28;20449;-58
2021/07/01 02:32:22;;;;;;;46.92;15.63;;;;;;;;;;4987920;28;20042;-57
2021/07/01 02:34:50;;;;;;;52.38;14.25;;;;;;;;;;4988577;28;20026;-58
2021/07/01 02:37:19;;;;;;;58.80;15.32;;;;;;;;;;4987778;28;20109;-59
2021/07/01 02:39:45;;;;;;;48.33;15.82;;;;;;;;;;4966164;28;20405;-58
2021/07/01 02:42:13;;;;;;;49.50;15.88;;;;;;;;;;4984920;28;20029;-59
2021/07/01 02:44:40;;;;;;;55.92;14.30;;;;;;;;;;4988158;28;20037;-58
2021/07/01 02:47:09;;;;;;;54.88;15.63;;;;;;;;;;4987482;28;20167;-58
2021/07/01 02:49:35;;;;;;;63.50;15.20;;;;;;;;;;4974369;28;20932;-59
2021/07/01 02:52:03;;;;;;;57.17;15.13;;;;;;;;;;4987157;28;20057;-58
2021/07/01 02:54:30;;;;;;;56.05;14.15;;;;;;;;;;4980728;28;20061;-59
2021/07/01 02:57:00;;;;;;;51.20;14.60;;;;;;;;;;4988723;28;20112;-59
2021/07/01 02:59:33;;;;;;;59.58;15.73;;;;;;;;;;4988070;28;20061;-58
2021/07/01 03:02:03;;;;;;;42.92;15.30;;;;;;;;;;4964543;28;20061;-58
2021/07/01 03:04:29;;;;;;;62.92;15.93;;;;;;;;;;4989685;28;20125;-58
2021/07/01 03:06:54;;;;;;;52.90;14.63;;;;;;;;;;4987379;28;20366;-57
2021/07/01 03:09:23;;;;;;;57.72;14.65;;;;;;;;;;4974793;28;20121;-56
2021/07/01 03:11:51;;;;;;;65.13;16.23;;;;;;;;;;4974623;28;20691;-58
2021/07/01 03:14:21;;;;;;;48.80;14.82;;;;;;;;;;4987980;28;20030;-58
2021/07/01 03:16:49;;;;;;;55.50;16.30;;;;;;;;;;4974280;28;20048;-58
2021/07/01 03:19:19;;;;;;;55.10;15.68;;;;;;;;;;4965581;28;20072;-58
2021/07/01 03:21:49;;;;;;;68.85;14.98;;;;;;;;;;4985884;28;20163;-58
2021/07/01 03:24:18;;;;;;;55.55;16.45;;;;;;;;;;4979827;28;20030;-59
2021/07/01 03:26:43;;;;;;;65.63;15.80;;;;;;;;;;4985186;28;20397;-59
2021/07/01 03:29:10;;;;;;;73.03;17.13;;;;;;;;;;4967206;28;20050;-58
2021/07/01 03:31:38;;;;;;;68.40;16.25;;;;;;;;;;4989159;28;20121;-59
2021/07/01 03:34:03;;;;;;;53.92;17.48;;;;;;;;;;4989612;28;20057;-61
2021/07/01 03:36:31;;;;;;;62.28;14.90;;;;;;;;;;4990284;28;20044;-58
2021/07/01 03:39:02;;;;;;;64.47;15.68;;;;;;;;;;4975642;28;20132;-59
2021/07/01 03:41:31;;;;;;;59.13;16.70;;;;;;;;;;4988484;28;21701;-59
2021/07/01 03:44:02;;;;;;;83.13;16.80;;;;;;;;;;4990530;28;20026;-59
2021/07/01 03:46:29;;;;;;;68.80;16.38;;;;;;;;;;4989106;28;20096;-60
2021/07/01 03:48:55;;;;;;;67.82;17.30;;;;;;;;;;4988017;28;20767;-59
2021/07/01 03:51:20;;;;;;;67.22;15.77;;;;;;;;;;4987673;28;20038;-60
2021/07/01 03:53:46;;;;;;;63.22;15.45;;;;;;;;;;4985021;28;20040;-59
2021/07/01 03:56:14;;;;;;;54.03;14.32;;;;;;;;;;4966259;28;20746;-59
2021/07/01 03:58:43;;;;;;;51.17;16.02;;;;;;;;;;4988320;28;20037;-60
2021/07/01 04:01:08;;;;;;;60.10;14.73;;;;;;;;;;4984651;28;20044;-59
2021/07/01 04:03:34;;;;;;;56.65;15.77;;;;;;;;;;4988399;28;20057;-60
2021/07/01 04:06:00;;;;;;;44.70;14.32;;;;;;;;;;4975539;28;20037;-59
2021/07/01 04:08:28;;;;;;;51.47;14.57;;;;;;;;;;4969714;28;20030;-60
2021/07/01 04:10:59;;;;;;;67.20;15.23;;;;;;;;;;4989579;28;20856;-60
2021/07/01 04:13:25;;;;;;;65.68;15.20;;;;;;;;;;4983675;28;20050;-60
2021/07/01 04:15:51;;;;;;;50.92;15.00;;;;;;;;;;4963326;28;20066;-59
2021/07/01 04:18:19;;;;;;;48.40;15.25;;;;;;;;;;4972687;28;20048;-62
2021/07/01 04:20:48;;;;;;;60.30;14.60;;;;;;;;;;4984690;28;20746;-60
2021/07/01 04:23:15;;;;;;;47.67;14.52;;;;;;;;;;4978490;28;20116;-61
2021/07/01 04:25:41;;;;;;;60.78;13.95;;;;;;;;;;4986942;28;20529;-62
2021/07/01 04:28:07;;;;;;;61.80;15.88;;;;;;;;;;4970361;28;20045;-59
2021/07/01 04:30:37;;;;;;;55.78;15.45;;;;;;;;;;4985637;28;20022;-60
2021/07/01 04:33:04;;;;;;;61.03;15.70;;;;;;;;;;4979084;28;20035;-59
2021/07/01 04:35:30;;;;;;;43.28;14.10;;;;;;;;;;4974038;28;20155;-58
2021/07/01 04:37:58;;;;;;;44.60;14.75;;;;;;;;;;4970325;28;20104;-57
2021/07/01 04:40:25;;;;;;;45.20;14.05;;;;;;;;;;4987010;28;20038;-57
2021/07/01 04:42:51;;;;;;;43.58;15.05;;;;;;;;;;4986211;28;20491;-55
2021/07/01 04:45:20;;;;;;;47.55;15.27;;;;;;;;;;4969977;28;20563;-57
2021/07/01 04:47:47;;;;;;;49.30;13.70;;;;;;;;;;4955405;28;20693;-58
2021/07/01 04:50:16;;;;;;;45.17;14.43;;;;;;;;;;4977009;28;20042;-58
2021/07/01 04:52:41;;;;;;;52.90;15.55;;;;;;;;;;4981008;28;20438;-57
2021/07/01 04:55:07;;;;;;;48.28;15.00;;;;;;;;;;4990859;28;20119;-57
2021/07/01 04:57:35;;;;;;;48.08;16.63;;;;;;;;;;4990342;28;20487;-59
2021/07/01 05:00:03;;;;;;;49.72;15.40;;;;;;;;;;4988985;28;20038;-58
2021/07/01 05:02:34;;;;;;;51.20;15.07;;;;;;;;;;4976139;28;20042;-58
2021/07/01 05:05:04;;;;;;;54.65;15.18;;;;;;;;;;4972137;28;20588;-57
2021/07/01 05:07:30;;;;;;;53.53;14.35;;;;;;;;;;4988106;28;20029;-59
2021/07/01 05:09:55;;;;;;;57.97;16.13;;;;;;;;;;4983098;28;20621;-57
2021/07/01 05:12:23;;;;;;;48.80;13.70;;;;;;;;;;4985933;28;20137;-58
2021/07/01 05:14:51;;;;;;;46.80;15.13;;;;;;;;;;4965582;28;20037;-58
2021/07/01 05:17:18;;;;;;;43.00;15.13;;;;;;;;;;4981766;28;20045;-59
2021/07/01 05:19:46;;;;;;;41.22;14.65;;;;;;;;;;4973132;28;20049;-59
2021/07/01 05:22:16;;;;;;;43.90;13.02;;;;;;;;;;4940953;28;20099;-58
2021/07/01 05:24:44;;;;;;;48.00;15.15;;;;;;;;;;4969742;28;20064;-58
2021/07/01 05:27:12;;;;;;;42.40;14.20;;;;;;;;;;4988633;28;20030;-58
2021/07/01 05:29:40;;;;;;;45.38;14.50;;;;;;;;;;4971283;28;20088;-58
2021/07/01 05:32:08;;;;;;;60.58;15.98;;;;;;;;;;4986454;28;20365;-59
2021/07/01 05:34:36;;;;;;;45.08;14.90;;;;;;;;;;4962640;28;20036;-58
2021/07/01 05:37:01;;;;;;;38.40;12.95;;;;;;;;;;4988330;28;20042;-58
2021/07/01 05:39:27;;;;;;;45.10;13.82;;;;;;;;;;4988766;28;22073;-59
2021/07/01 05:41:58;;;;;;;39.88;14.00;;;;;;;;;;4987051;28;20102;-58
2021/07/01 05:44:24;;;;;;;37.55;13.10;;;;;;;;;;4988848;28;20448;-58
2021/07/01 05:46:52;;;;;;;39.85;13.38;;;;;;;;;;4972571;28;20034;-57
2021/07/01 05:49:20;;;;;;;33.22;12.05;;;;;;;;;;4986388;28;20061;-58
2021/07/01 05:51:51;;;;;;;38.13;12.82;;;;;;;;;;4983050;28;20085;-58
2021/07/01 05:54:27;;;;;;;32.28;11.75;;;;;;;;;;4979342;28;20033;-59
2021/07/01 05:56:53;;;;;;;32.95;12.68;;;;;;;;;;4989242;28;20050;-59
2021/07/01 05:59:22;;;;;;;32.15;11.73;;;;;;;;;;4989492;28;20123;-59
2021/07/01 06:01:48;;;;;;;40.72;11.98;;;;;;;;;;4987395;28;20045;-58
2021/07/01 06:04:13;;;;;;;35.17;13.02;;;;;;;;;;4973009;28;20037;-59
2021/07/01 06:06:40;;;;;;;41.95;12.93;;;;;;;;;;4950708;28;20121;-59
2021/07/01 06:09:09;;;;;;;41.30;13.43;;;;;;;;;;4986923;28;20065;-60
2021/07/01 06:11:46;;;;;;;38.28;15.00;;;;;;;;;;4972964;28;20496;-59
2021/07/01 06:14:11;;;;;;;37.85;14.20;;;;;;;;;;4989004;28;20044;-60
2021/07/01 06:16:38;;;;;;;45.95;15.65;;;;;;;;;;4988664;28;20026;-58
2021/07/01 06:19:05;;;;;;;44.58;14.25;;;;;;;;;;4963413;28;20026;-58
2021/07/01 06:21:31;;;;;;;50.38;14.25;;;;;;;;;;4966803;28;20095;-58
2021/07/01 06:23:57;;;;;;;34.33;14.32;;;;;;;;;;4986568;28;20036;-58
2021/07/01 06:26:26;;;;;;;40.47;15.02;;;;;;;;;;4980926;28;20046;-59
2021/07/01 06:28:57;;;;;;;38.65;14.73;;;;;;;;;;4987015;28;20145;-58
2021/07/01 06:31:22;;;;;;;33.97;14.07;;;;;;;;;;4973778;28;20042;-59
2021/07/01 06:33:48;;;;;;;33.95;13.52;;;;;;;;;;4987708;28;20049;-59
2021/07/01 06:36:16;;;;;;;47.28;15.38;;;;;;;;;;4957722;28;20033;-59
2021/07/01 06:38:45;;;;;;;32.38;13.40;;;;;;;;;;4986609;28;20030;-60
2021/07/01 06:41:11;;;;;;;38.25;14.13;;;;;;;;;;4970992;28;20497;-58
2021/07/01 06:43:41;;;;;;;38.58;13.23;;;;;;;;;;4988592;28;20057;-60
2021/07/01 06:46:07;;;;;;;50.72;14.10;;;;;;;;;;4987400;28;20041;-58
2021/07/01 06:48:33;;;;;;;42.40;14.60;;;;;;;;;;4956334;28;20042;-58
2021/07/01 06:50:59;;;;;;;42.20;13.55;;;;;;;;;;4988092;28;20073;-60
2021/07/01 06:53:31;;;;;;;44.42;14.68;;;;;;;;;;4966480;28;20040;-59
2021/07/01 06:55:56;;;;;;;42.08;15.52;;;;;;;;;;4988222;28;20048;-59
2021/07/01 06:58:24;;;;;;;31.98;13.10;;;;;;;;;;4988437;28;20041;-59
2021/07/01 07:00:50;;;;;;;31.13;12.88;;;;;;;;;;4973836;28;20196;-58
2021/07/01 07:03:19;;;;;;;44.30;13.30;;;;;;;;;;4976871;28;20416;-58
2021/07/01 07:05:47;;;;;;;34.65;12.95;;;;;;;;;;4989943;28;20021;-59
2021/07/01 07:08:17;;;;;;;45.10;13.20;;;;;;;;;;4967422;28;20103;-59
2021/07/01 07:10:44;;;;;;;34.22;12.73;;;;;;;;;;4976342;28;20128;-59
2021/07/01 07:13:10;;;;;;;33.03;12.85;;;;;;;;;;4970004;28;20038;-59
2021/07/01 07:15:39;;;;;;;34.90;12.15;;;;;;;;;;4978419;28;20660;-59
2021/07/01 07:18:18;;;;;;;30.40;11.57;;;;;;;;;;4988336;28;20025;-58
2021/07/01 07:20:51;;;;;;;37.25;12.38;;;;;;;;;;4973149;28;20095;-59
2021/07/01 07:23:17;;;;;;;28.38;11.60;;;;;;;;;;4990484;28;20044;-58
2021/07/01 07:25:43;;;;;;;30.17;12.07;;;;;;;;;;4990791;28;20030;-59
2021/07/01 07:28:09;;;;;;;33.05;12.65;;;;;;;;;;4990391;28;20043;-59
2021/07/01 07:30:38;;;;;;;37.00;11.85;;;;;;;;;;4991288;28;20069;-57
2021/07/01 07:33:06;;;;;;;31.50;12.40;;;;;;;;;;4982839;28;20030;-59
2021/07/01 07:35:32;;;;;;;35.13;13.25;;;;;;;;;;4990607;28;20389;-59
2021/07/01 07:37:59;;;;;;;38.70;13.52;;;;;;;;;;4990960;28;20032;-58
2021/07/01 07:40:27;;;;;;;36.25;13.25;;;;;;;;;;4991023;28;20133;-59
2021/07/01 07:42:54;;;;;;;44.65;14.65;;;;;;;;;;4962578;28;20030;-59
2021/07/01 07:45:22;;;;;;;34.40;14.20;;;;;;;;;;4962290;28;20038;-58
2021/07/01 07:47:48;;;;;;;41.78;13.65;;;;;;;;;;4990186;28;20038;-59
2021/07/01 07:50:17;;;;;;;38.53;13.55;;;;;;;;;;4978149;28;20035;-58
2021/07/01 07:52:48;;;;;;;43.25;13.10;;;;;;;;;;4989612;28;20067;-59
2021/07/01 07:55:20;;;;;;;44.25;14.35;;;;;;;;;;4975620;28;20037;-58
2021/07/01 07:57:53;;;;;;;43.60;14.18;;;;;;;;;;4977537;28;20030;-58
2021/07/01 08:00:18;;;;;;;38.63;12.73;;;;;;;;;;4970191;28;20030;-58
2021/07/01 08:02:45;;;;;;;33.92;12.50;;;;;;;;;;4968063;28;20044;-58
2021/07/01 08:05:13;;;;;;;32.13;13.20;;;;;;;;;;4989967;28;20675;-59
2021/07/01 08:07:40;;;;;;;38.85;13.57;;;;;;;;;;4973396;28;20064;-58
2021/07/01 08:10:11;;;;;;;32.28;12.63;;;;;;;;;;4975794;28;20073;-59
2021/07/01 08:12:40;;;;;;;42.63;14.32;;;;;;;;;;4990383;28;20033;-58
2021/07/01 08:15:06;;;;;;;40.72;12.82;;;;;;;;;;4949380;28;20033;-58
2021/07/01 08:17:31;;;;;;;43.30;14.63;;;;;;;;;;4974910;28;20086;-58
2021/07/01 08:20:01;;;;;;;34.45;13.27;;;;;;;;;;4984960;28;20057;-58
2021/07/01 08:22:30;;;;;;;40.60;13.07;;;;;;;;;;4984162;28;20042;-58
2021/07/01 08:25:01;;;;;;;50.03;13.77;;;;;;;;;;4990871;28;20030;-59
2021/07/01 08:27:27;;;;;;;37.38;13.05;;;;;;;;;;4975695;28;20183;-59
2021/07/01 08:29:53;;;;;;;30.05;13.18;;;;;;;;;;4976323;28;20121;-59
2021/07/01 08:32:21;;;;;;;39.95;13.55;;;;;;;;;;4989283;28;20030;-59
2021/07/01 08:34:47;;;;;;;33.80;13.07;;;;;;;;;;4975602;28;20056;-59
2021/07/01 08:37:13;;;;;;;37.72;12.85;;;;;;;;;;4989220;28;20040;-60
2021/07/01 08:39:39;;;;;;;27.73;12.32;;;;;;;;;;4990263;28;20044;-59
2021/07/01 08:42:04;;;;;;;31.85;12.75;;;;;;;;;;4989774;28;21207;-59
2021/07/01 08:44:42;;;;;;;26.65;11.40;;;;;;;;;;4967579;28;20030;-58
2021/07/01 08:47:09;;;;;;;32.05;11.93;;;;;;;;;;4989649;28;20083;-58
2021/07/01 08:49:57;;;;;;;31.52;12.60;;;;;;;;;;4989792;28;20622;-59
2021/07/01 08:52:27;;;;;;;28.80;12.18;;;;;;;;;;4989591;28;20053;-59
2021/07/01 08:55:15;;;;;;;31.23;12.07;;;;;;;;;;4989923;28;20738;-59
2021/07/01 08:57:46;;;;;;;31.17;13.20;;;;;;;;;;4990912;28;20048;-59
2021/07/01 09:00:15;;;;;;;35.42;12.38;;;;;;;;;;4977056;28;22079;-59
2021/07/01 09:02:42;;;;;;;32.20;12.38;;;;;;;;;;4954114;28;20053;-59
2021/07/01 09:05:12;;;;;;;28.88;11.50;;;;;;;;;;4991154;28;20050;-59
2021/07/01 09:07:38;;;;;;;26.80;12.00;;;;;;;;;;4965989;28;20037;-60
2021/07/01 09:10:13;;;;;;;35.35;12.57;;;;;;;;;;4980387;28;20029;-59
2021/07/01 09:12:42;;;;;;;26.40;11.85;;;;;;;;;;4990458;28;20038;-60
2021/07/01 09:15:09;;;;;;;34.90;13.00;;;;;;;;;;4990550;28;20044;-60
2021/07/01 09:17:35;;;;;;;27.95;11.68;;;;;;;;;;4974792;28;20406;-60
2021/07/01 09:20:03;;;;;;;25.00;11.70;;;;;;;;;;4988135;28;20056;-60
2021/07/01 09:22:29;;;;;;;29.85;12.90;;;;;;;;;;4974493;28;20390;-59
2021/07/01 09:24:58;;;;;;;29.90;12.15;;;;;;;;;;4989611;28;20092;-59
2021/07/01 09:27:27;;;;;;;25.38;11.80;;;;;;;;;;4976288;28;20033;-62
2021/07/01 09:29:55;;;;;;;30.25;11.32;;;;;;;;;;4990944;28;20108;-62
2021/07/01 09:32:27;;;;;;;25.55;11.93;;;;;;;;;;4986908;28;20431;-61
2021/07/01 09:34:53;;;;;;;26.88;12.73;;;;;;;;;;4965834;28;20037;-61
2021/07/01 09:37:21;;;;;;;27.98;11.93;;;;;;;;;;4982091;28;20026;-61
2021/07/01 09:39:48;;;;;;;28.52;12.18;;;;;;;;;;4988859;28;20033;-62
2021/07/01 09:42:14;;;;;;;26.05;11.48;;;;;;;;;;4982225;28;20037;-61
2021/07/01 09:44:41;;;;;;;29.30;11.50;;;;;;;;;;4951444;28;20474;-59
2021/07/01 09:47:10;;;;;;;27.58;11.60;;;;;;;;;;4976100;28;20057;-61
2021/07/01 09:49:42;;;;;;;27.02;11.32;;;;;;;;;;4965797;28;20601;-62
2021/07/01 09:52:14;;;;;;;23.42;10.48;;;;;;;;;;4966613;28;20037;-62
2021/07/01 09:54:41;;;;;;;29.08;10.38;;;;;;;;;;4965774;28;20034;-61
2021/07/01 09:57:28;;;;;;;22.85;10.60;;;;;;;;;;4972345;28;20029;-59
2021/07/01 10:00:02;;;;;;;16.33;10.07;;;;;;;;;;4988913;28;20037;-62
2021/07/01 10:02:32;;;;;;;29.42;10.63;;;;;;;;;;4989095;28;20034;-62
2021/07/01 10:04:58;;;;;;;18.90;9.75;;;;;;;;;;4982257;28;20042;-61
2021/07/01 10:07:26;;;;;;;22.90;10.32;;;;;;;;;;4970210;28;20088;-62
2021/07/01 10:09:54;;;;;;;22.73;11.05;;;;;;;;;;4982535;28;20037;-62
2021/07/01 10:12:24;;;;;;;22.35;11.82;;;;;;;;;;4971040;28;20037;-61
2021/07/01 10:14:51;;;;;;;27.10;12.55;;;;;;;;;;4966303;28;20088;-62
2021/07/01 10:17:17;;;;;;;25.50;11.05;;;;;;;;;;4965539;28;20076;-64
2021/07/01 10:19:44;;;;;;;26.05;12.07;;;;;;;;;;4990355;28;20033;-62
2021/07/01 10:22:11;;;;;;;23.45;11.23;;;;;;;;;;4969030;28;20053;-62
2021/07/01 10:24:49;;;;;;;29.38;11.63;;;;;;;;;;4981985;28;20029;-62
2021/07/01 10:27:32;;;;;;;21.52;10.52;;;;;;;;;;4987827;28;20043;-62
2021/07/01 10:29:59;;;;;;;20.23;10.57;;;;;;;;;;4988496;28;20041;-60
2021/07/01 10:32:35;;;;;;;22.13;11.27;;;;;;;;;;4971225;28;20172;-61
2021/07/01 10:35:03;;;;;;;19.73;10.48;;;;;;;;;;4988144;28;20038;-61
2021/07/01 10:37:31;;;;;;;22.10;11.02;;;;;;;;;;4975755;28;20045;-63
2021/07/01 10:39:59;;;;;;;20.10;10.70;;;;;;;;;;4977503;28;20041;-61
2021/07/01 10:42:32;;;;;;;20.50;10.75;;;;;;;;;;4956911;28;20042;-60
2021/07/01 10:45:07;;;;;;;20.30;10.48;;;;;;;;;;4991565;28;20030;-61
2021/07/01 10:47:32;;;;;;;19.67;10.45;;;;;;;;;;4977978;28;20075;-60
2021/07/01 10:49:59;;;;;;;20.30;10.15;;;;;;;;;;4969055;28;20042;-60
2021/07/01 10:52:34;;;;;;;25.35;11.43;;;;;;;;;;4977044;28;20073;-61
2021/07/01 10:55:00;;;;;;;20.67;10.32;;;;;;;;;;4985084;28;20809;-62
2021/07/01 10:57:30;;;;;;;23.25;12.05;;;;;;;;;;4953588;28;20041;-61
2021/07/01 10:59:57;;;;;;;21.10;10.70;;;;;;;;;;4992162;28;20038;-62
2021/07/01 11:02:24;;;;;;;24.30;11.40;;;;;;;;;;4991754;28;21883;-61
2021/07/01 11:04:50;;;;;;;20.83;10.85;;;;;;;;;;4989562;28;20896;-62
2021/07/01 11:07:17;;;;;;;18.30;10.40;;;;;;;;;;4990467;28;20030;-63
2021/07/01 11:09:45;;;;;;;26.15;11.63;;;;;;;;;;4990886;28;20037;-63
2021/07/01 11:12:13;;;;;;;21.40;11.02;;;;;;;;;;4984712;28;20037;-61
2021/07/01 11:14:48;;;;;;;32.17;11.30;;;;;;;;;;4973006;28;20038;-62
2021/07/01 11:17:14;;;;;;;21.58;10.55;;;;;;;;;;4991095;28;20061;-62
2021/07/01 11:19:41;;;;;;;16.40;10.15;;;;;;;;;;4991313;28;20083;-63
2021/07/01 11:22:07;;;;;;;19.77;10.73;;;;;;;;;;4984372;28;20042;-62
2021/07/01 11:24:34;;;;;;;19.08;9.63;;;;;;;;;;4991069;28;20128;-60
2021/07/01 11:27:05;;;;;;;20.30;10.02;;;;;;;;;;4967378;28;20400;-63
2021/07/01 11:29:42;;;;;;;18.08;8.77;;;;;;;;;;4975628;28;20061;-62
2021/07/01 11:32:18;;;;;;;19.38;9.02;;;;;;;;;;4988794;28;20045;-60
2021/07/01 11:34:44;;;;;;;21.10;8.65;;;;;;;;;;4972225;28;20091;-62
2021/07/01 11:37:12;;;;;;;19.73;9.27;;;;;;;;;;4989440;28;20061;-62
2021/07/01 11:39:38;;;;;;;14.95;8.80;;;;;;;;;;4990642;28;20117;-62
2021/07/01 11:42:04;;;;;;;17.83;8.00;;;;;;;;;;4989871;28;20048;-62
2021/07/01 11:44:33;;;;;;;16.73;8.73;;;;;;;;;;4960066;28;20038;-62
2021/07/01 11:47:03;;;;;;;13.18;7.50;;;;;;;;;;4987573;28;20022;-62
2021/07/01 11:49:33;;;;;;;12.55;6.95;;;;;;;;;;4990561;28;20037;-62
2021/07/01 11:52:02;;;;;;;14.65;9.10;;;;;;;;;;4987999;28;20049;-62
2021/07/01 11:54:28;;;;;;;16.73;8.27;;;;;;;;;;4989364;28;20156;-62
2021/07/01 11:56:59;;;;;;;14.63;8.80;;;;;;;;;;4983949;28;20112;-63
2021/07/01 11:59:30;;;;;;;13.98;8.27;;;;;;;;;;4988687;28;20054;-62
2021/07/01 12:01:59;;;;;;;18.30;9.35;;;;;;;;;;4989320;28;20061;-59
2021/07/01 12:04:34;;;;;;;21.67;9.32;;;;;;;;;;4989312;28;20942;-61
2021/07/01 12:07:02;;;;;;;15.63;8.30;;;;;;;;;;4967102;28;20540;-61
2021/07/01 12:09:29;;;;;;;12.02;7.88;;;;;;;;;;4989765;28;20038;-63
2021/07/01 12:12:03;;;;;;;13.38;7.20;;;;;;;;;;4972364;28;20985;-62
2021/07/01 12:14:39;;;;;;;15.05;7.45;;;;;;;;;;4973039;28;20141;-63
2021/07/01 12:17:04;;;;;;;16.27;8.38;;;;;;;;;;4951315;28;21913;-63
2021/07/01 12:19:45;;;;;;;12.18;7.80;;;;;;;;;;4966761;28;20051;-62
2021/07/01 12:22:32;;;;;;;12.38;6.85;;;;;;;;;;4991040;28;20056;-62
2021/07/01 12:25:03;;;;;;;11.10;7.63;;;;;;;;;;4990325;28;20026;-61
2021/07/01 12:27:31;;;;;;;13.55;7.28;;;;;;;;;;4990183;28;20111;-61
2021/07/01 12:29:59;;;;;;;11.38;6.80;;;;;;;;;;4990300;28;20044;-63
2021/07/01 12:32:28;;;;;;;12.48;7.57;;;;;;;;;;4993285;28;20034;-61
2021/07/01 12:34:54;;;;;;;12.90;7.55;;;;;;;;;;4988975;28;20453;-64
2021/07/01 12:37:22;;;;;;;12.18;7.10;;;;;;;;;;4955042;28;20101;-62
2021/07/01 12:39:48;;;;;;;14.70;8.13;;;;;;;;;;4964230;28;20119;-62
2021/07/01 12:42:14;;;;;;;14.50;8.43;;;;;;;;;;4957150;28;20133;-62
2021/07/01 12:44:44;;;;;;;14.25;8.32;;;;;;;;;;4969187;28;20042;-63
2021/07/01 12:47:27;;;;;;;12.10;7.57;;;;;;;;;;4951465;28;21065;-64
2021/07/01 12:49:57;;;;;;;13.88;7.70;;;;;;;;;;4988556;28;20930;-60
2021/07/01 12:52:35;;;;;;;14.48;7.53;;;;;;;;;;4972151;28;20041;-62
2021/07/01 12:55:03;;;;;;;17.35;8.45;;;;;;;;;;4990485;28;20100;-61
2021/07/01 12:57:29;;;;;;;16.45;8.00;;;;;;;;;;4989093;28;20040;-62
2021/07/01 12:59:56;;;;;;;19.20;8.05;;;;;;;;;;4988303;28;20033;-63
2021/07/01 13:02:26;;;;;;;18.52;8.77;;;;;;;;;;4989310;28;20029;-63
2021/07/01 13:04:57;;;;;;;14.93;7.97;;;;;;;;;;4989823;28;20084;-62
2021/07/01 13:07:23;;;;;;;16.80;8.40;;;;;;;;;;4974617;28;20040;-61
2021/07/01 13:09:54;;;;;;;15.13;8.10;;;;;;;;;;4988400;28;20080;-62
2021/07/01 13:12:26;;;;;;;11.40;6.32;;;;;;;;;;4950549;28;20042;-62
2021/07/01 13:14:57;;;;;;;14.68;8.10;;;;;;;;;;4957030;28;20084;-62
2021/07/01 13:17:24;;;;;;;13.88;7.63;;;;;;;;;;4982655;28;22133;-62
2021/07/01 13:19:54;;;;;;;15.45;6.47;;;;;;;;;;4990033;28;20041;-61
2021/07/01 13:22:20;;;;;;;13.73;7.57;;;;;;;;;;4987746;28;20045;-63
2021/07/01 13:24:53;;;;;;;12.05;6.72;;;;;;;;;;4988155;28;20623;-62
2021/07/01 13:27:39;;;;;;;8.35;5.78;;;;;;;;;;4988450;28;20069;-62
2021/07/01 13:30:08;;;;;;;12.32;7.20;;;;;;;;;;4984597;28;20040;-60
2021/07/01 13:32:34;;;;;;;12.75;6.53;;;;;;;;;;4988588;28;20184;-62
2021/07/01 13:35:04;;;;;;;15.00;7.70;;;;;;;;;;4988814;28;20041;-63
2021/07/01 13:37:35;;;;;;;19.70;7.45;;;;;;;;;;4987112;28;20929;-60
2021/07/01 13:40:20;;;;;;;18.10;7.88;;;;;;;;;;4988168;28;20707;-63
2021/07/01 13:42:52;;;;;;;18.20;8.02;;;;;;;;;;4950237;28;20040;-62
2021/07/01 13:45:22;;;;;;;14.57;5.95;;;;;;;;;;4987954;28;20038;-62
2021/07/01 13:47:55;;;;;;;17.63;6.28;;;;;;;;;;4950900;28;20042;-63
2021/07/01 13:50:21;;;;;;;18.35;6.57;;;;;;;;;;4988417;28;20033;-63
2021/07/01 13:52:50;;;;;;;17.33;6.30;;;;;;;;;;4988992;28;20757;-63
2021/07/01 13:55:29;;;;;;;14.10;6.28;;;;;;;;;;4988551;28;20030;-64
2021/07/01 13:57:56;;;;;;;16.35;7.20;;;;;;;;;;4966188;28;20124;-62
2021/07/01 14:00:22;;;;;;;10.07;5.80;;;;;;;;;;4988037;28;20053;-62
2021/07/01 14:02:48;;;;;;;13.90;6.10;;;;;;;;;;4980820;28;20026;-61
2021/07/01 14:05:32;;;;;;;18.63;7.30;;;;;;;;;;4989423;28;20018;-62
2021/07/01 14:07:58;;;;;;;11.57;7.07;;;;;;;;;;4984983;28;20025;-62
2021/07/01 14:10:30;;;;;;;11.32;6.63;;;;;;;;;;4989402;28;20372;-61
2021/07/01 14:12:56;;;;;;;9.02;5.90;;;;;;;;;;4988789;28;20680;-61
2021/07/01 14:15:22;;;;;;;7.45;5.80;;;;;;;;;;4981543;28;20091;-63
2021/07/01 14:17:51;;;;;;;15.70;6.00;;;;;;;;;;4987994;28;21016;-63
2021/07/01 14:20:17;;;;;;;11.05;6.05;;;;;;;;;;4986372;28;20037;-65
2021/07/01 14:22:42;;;;;;;13.10;5.93;;;;;;;;;;4964246;28;20511;-64
2021/07/01 14:25:17;;;;;;;12.88;6.22;;;;;;;;;;4990457;28;20061;-64
2021/07/01 14:27:43;;;;;;;16.52;6.70;;;;;;;;;;4987933;28;20436;-63
2021/07/01 14:30:09;;;;;;;11.13;5.88;;;;;;;;;;4987004;28;20069;-64